Time;durP1;ratioP1;P1;durP2;ratioP2;P2;SDS_P1;SDS_P2;PMS_P1;PMS_P2;Temp;Humidity;BMP_temperature;BMP_pressure;BME280_temperature;BME280_humidity;BME280_pressure;Samples;Min_cycle;Max_cycle;Signal;HPM_P1;HPM_P2
2021/12/05 00:23:58;;;;;;;7.03;4.90;;;;;;;-140.79;100.00;63287.88;5044472;28;20539;-54
2021/12/05 00:26:24;;;;;;;6.60;4.40;;;;;;;-140.79;100.00;63287.88;5043806;28;20039;-52
2021/12/05 00:47:34;;;;;;;7.22;4.63;;;;;;;-140.79;100.00;63287.88;5044081;28;20047;-49
2021/12/05 00:55:49;;;;;;;7.30;4.63;;;;;;;-140.79;100.00;63287.88;5044359;28;20117;-50
2021/12/05 01:16:47;;;;;;;7.38;4.85;;;;;;;-140.79;100.00;63287.88;4981124;28;20046;-48
2021/12/05 01:19:15;;;;;;;7.80;4.72;;;;;;;-140.79;100.00;63287.88;5030343;28;20045;-51
2021/12/05 01:21:41;;;;;;;7.15;4.70;;;;;;;-140.79;100.00;63287.88;5043313;28;20415;-51
2021/12/05 01:29:34;;;;;;;6.82;4.82;;;;;;;-140.79;100.00;63287.88;5042970;28;20060;-50
2021/12/05 01:36:53;;;;;;;7.25;4.65;;;;;;;-140.79;100.00;63287.88;5043387;28;20487;-48
2021/12/05 01:39:35;;;;;;;6.77;4.63;;;;;;;-140.79;100.00;63287.88;5041376;28;20032;-48
2021/12/05 02:35:41;;;;;;;6.43;4.80;;;;;;;-140.79;100.00;63287.88;5042193;28;20111;-50
2021/12/05 02:43:35;;;;;;;7.00;4.97;;;;;;;-140.79;100.00;63287.88;5041246;28;20102;-49
2021/12/05 02:46:03;;;;;;;6.50;4.70;;;;;;;-140.79;100.00;63287.88;5041764;28;20086;-48
2021/12/05 02:48:30;;;;;;;7.43;4.90;;;;;;;-140.79;100.00;63287.88;5041185;28;20127;-51
2021/12/05 02:50:57;;;;;;;7.60;4.90;;;;;;;-140.79;100.00;63287.88;5042110;28;20088;-51
2021/12/05 02:53:33;;;;;;;7.25;4.75;;;;;;;-140.79;100.00;63287.88;5042286;28;20040;-49
2021/12/05 02:55:58;;;;;;;7.20;5.20;;;;;;;-140.79;100.00;63287.88;5041727;28;20613;-47
2021/12/05 02:58:35;;;;;;;7.40;4.90;;;;;;;-140.79;100.00;63287.88;5042037;28;20059;-51
2021/12/05 03:03:30;;;;;;;6.38;4.53;;;;;;;-140.79;100.00;63287.88;5056462;28;20025;-49
2021/12/05 03:06:02;;;;;;;7.43;5.00;;;;;;;-140.79;100.00;63287.88;5041230;28;20057;-51
2021/12/05 03:08:28;;;;;;;6.25;4.72;;;;;;;-140.79;100.00;63287.88;5040976;28;20540;-48
2021/12/05 03:10:54;;;;;;;6.90;4.68;;;;;;;-140.79;100.00;63287.88;5041798;28;20029;-47
2021/12/05 03:13:19;;;;;;;6.10;4.68;;;;;;;-140.79;100.00;63287.88;5041602;28;20033;-48
2021/12/05 03:15:45;;;;;;;6.50;4.88;;;;;;;-140.79;100.00;63287.88;5041739;28;20037;-50
2021/12/05 03:18:10;;;;;;;7.47;5.00;;;;;;;-140.79;100.00;63287.88;5041537;28;20048;-49
2021/12/05 03:20:36;;;;;;;6.60;4.60;;;;;;;-140.79;100.00;63287.88;5041630;28;20476;-48
2021/12/05 03:23:01;;;;;;;6.72;5.00;;;;;;;-140.79;100.00;63287.88;5041209;28;20032;-48
2021/12/05 03:25:27;;;;;;;7.60;5.25;;;;;;;-140.79;100.00;63287.88;5041659;28;20029;-48
2021/12/05 03:27:52;;;;;;;7.45;5.85;;;;;;;-140.79;100.00;63287.88;5039822;28;20036;-51
2021/12/05 03:30:21;;;;;;;6.95;5.10;;;;;;;-140.79;100.00;63287.88;5040111;28;20033;-48
2021/12/05 03:32:48;;;;;;;7.65;5.00;;;;;;;-140.79;100.00;63287.88;5040920;28;20033;-51
2021/12/05 03:35:14;;;;;;;6.30;4.75;;;;;;;-140.79;100.00;63287.88;5041380;28;20021;-48
2021/12/05 03:37:39;;;;;;;7.10;5.10;;;;;;;-140.79;100.00;63287.88;5041611;28;20045;-49
2021/12/05 03:40:06;;;;;;;6.30;4.65;;;;;;;-140.79;100.00;63287.88;5041123;28;20530;-48
2021/12/05 03:42:32;;;;;;;6.60;4.80;;;;;;;-140.79;100.00;63287.88;5041031;28;20029;-51
2021/12/05 03:44:57;;;;;;;5.93;4.45;;;;;;;-140.79;100.00;63287.88;5041319;28;20666;-47
2021/12/05 03:47:23;;;;;;;6.53;4.55;;;;;;;-140.79;100.00;63287.88;5041427;28;20021;-51
2021/12/05 03:49:48;;;;;;;6.47;4.63;;;;;;;-140.79;100.00;63287.88;5043257;28;20033;-48
2021/12/05 03:52:15;;;;;;;6.50;4.22;;;;;;;-140.79;100.00;63287.88;5044799;28;20132;-48
2021/12/05 03:54:40;;;;;;;6.60;4.70;;;;;;;-140.79;100.00;63287.88;5044868;28;20154;-50
2021/12/05 03:57:06;;;;;;;8.48;5.53;;;;;;;-140.79;100.00;63287.88;5045078;28;20029;-51
2021/12/05 03:59:31;;;;;;;7.30;4.78;;;;;;;-140.79;100.00;63287.88;5043634;28;20032;-47
2021/12/05 04:01:57;;;;;;;8.50;4.95;;;;;;;-140.79;100.00;63287.88;5045011;28;20029;-51
2021/12/05 04:04:23;;;;;;;7.90;4.85;;;;;;;-140.79;100.00;63287.88;5044539;28;20112;-50
2021/12/05 04:06:48;;;;;;;6.43;4.75;;;;;;;-140.79;100.00;63287.88;5044860;28;20136;-48
2021/12/05 04:09:14;;;;;;;7.00;4.85;;;;;;;-140.79;100.00;63287.88;5044610;28;20491;-47
2021/12/05 04:11:44;;;;;;;7.53;5.22;;;;;;;-140.79;100.00;63287.88;5045021;28;20476;-49
2021/12/05 04:14:11;;;;;;;6.93;5.28;;;;;;;-140.79;100.00;63287.88;5043716;28;20026;-50
2021/12/05 04:16:36;;;;;;;7.90;5.40;;;;;;;-140.79;100.00;63287.88;5044715;28;20047;-51
2021/12/05 04:19:02;;;;;;;7.25;5.20;;;;;;;-140.79;100.00;63287.88;5042981;28;20041;-49
2021/12/05 04:21:29;;;;;;;7.28;5.28;;;;;;;-140.79;100.00;63287.88;5044561;28;20035;-51
2021/12/05 04:23:56;;;;;;;7.85;5.72;;;;;;;-140.79;100.00;63287.88;5043376;28;20087;-49
2021/12/05 04:26:22;;;;;;;6.97;5.10;;;;;;;-140.79;100.00;63287.88;5043311;28;20029;-52
2021/12/05 04:28:47;;;;;;;6.75;5.03;;;;;;;-140.79;100.00;63287.88;5044318;28;20067;-52
2021/12/05 04:31:14;;;;;;;6.85;4.78;;;;;;;-140.79;100.00;63287.88;5044203;28;20117;-53
2021/12/05 04:33:40;;;;;;;7.35;5.40;;;;;;;-140.79;100.00;63287.88;5044592;28;20037;-52
2021/12/05 04:36:05;;;;;;;7.00;5.05;;;;;;;-140.79;100.00;63287.88;5044495;28;20722;-51
2021/12/05 04:38:31;;;;;;;8.50;5.53;;;;;;;-140.79;100.00;63287.88;5044168;28;20564;-50
2021/12/05 04:40:56;;;;;;;6.72;4.90;;;;;;;-140.79;100.00;63287.88;5044370;28;20037;-51
2021/12/05 04:43:22;;;;;;;6.93;5.00;;;;;;;-140.79;100.00;63287.88;5043064;28;20490;-52
2021/12/05 04:45:47;;;;;;;6.93;5.43;;;;;;;-140.79;100.00;63287.88;5042236;28;20230;-50
2021/12/05 04:48:13;;;;;;;7.60;5.53;;;;;;;-140.79;100.00;63287.88;5044478;28;20021;-49
2021/12/05 04:50:39;;;;;;;7.10;5.10;;;;;;;-140.79;100.00;63287.88;5044047;28;20113;-50
2021/12/05 04:53:04;;;;;;;7.47;5.22;;;;;;;-140.79;100.00;63287.88;5044316;28;20431;-52
2021/12/05 04:55:30;;;;;;;6.55;4.75;;;;;;;-140.79;100.00;63287.88;5042844;28;20024;-49
2021/12/05 04:57:56;;;;;;;7.10;5.03;;;;;;;-140.79;100.00;63287.88;5043957;28;20044;-54
2021/12/05 05:00:40;;;;;;;7.82;5.13;;;;;;;-140.79;100.00;63287.88;5043096;28;20502;-53
2021/12/05 05:03:05;;;;;;;9.43;6.20;;;;;;;-140.79;100.00;63287.88;5041481;28;20028;-51
2021/12/05 05:05:32;;;;;;;7.57;5.50;;;;;;;-140.79;100.00;63287.88;5042775;28;20033;-50
2021/12/05 05:07:59;;;;;;;8.95;5.35;;;;;;;-140.79;100.00;63287.88;5043236;28;20033;-51
2021/12/05 05:10:26;;;;;;;7.22;4.80;;;;;;;-140.79;100.00;63287.88;5042823;28;20037;-50
2021/12/05 05:12:51;;;;;;;8.32;5.90;;;;;;;-140.79;100.00;63287.88;5042624;28;20517;-51
2021/12/05 05:15:21;;;;;;;6.75;5.07;;;;;;;-140.79;100.00;63287.88;5043077;28;20040;-50
2021/12/05 05:17:49;;;;;;;7.38;4.93;;;;;;;-140.79;100.00;63287.88;5039319;28;20139;-52
2021/12/05 05:20:23;;;;;;;7.10;5.05;;;;;;;-140.79;100.00;63287.88;5039641;28;20116;-52
2021/12/05 05:23:18;;;;;;;7.53;5.28;;;;;;;-140.79;100.00;63287.88;5039096;28;20029;-52
2021/12/05 05:50:14;;;;;;;6.40;4.65;;;;;;;-140.79;100.00;63287.88;5040992;28;20028;-51
2021/12/05 05:52:39;;;;;;;8.35;5.00;;;;;;;-140.79;100.00;63287.88;5040662;28;20112;-52
2021/12/05 05:55:05;;;;;;;6.45;4.65;;;;;;;-140.79;100.00;63287.88;5041235;28;20474;-53
2021/12/05 05:57:40;;;;;;;8.27;5.68;;;;;;;-140.79;100.00;63287.88;5042417;28;20037;-53
2021/12/05 06:00:15;;;;;;;7.45;5.15;;;;;;;-140.79;100.00;63287.88;5042619;28;20040;-52
2021/12/05 06:05:25;;;;;;;6.22;4.47;;;;;;;-140.79;100.00;63287.88;5040241;28;20075;-53
2021/12/05 06:07:51;;;;;;;7.40;5.10;;;;;;;-140.79;100.00;63287.88;5041811;28;20060;-50
2021/12/05 06:10:21;;;;;;;7.38;4.63;;;;;;;-140.79;100.00;63287.88;5039337;28;20506;-54
2021/12/05 06:12:47;;;;;;;7.28;5.07;;;;;;;-140.79;100.00;63287.88;5041349;28;20494;-53
2021/12/05 06:15:13;;;;;;;8.23;5.07;;;;;;;-140.79;100.00;63287.88;5035982;28;20122;-54
2021/12/05 06:17:39;;;;;;;6.95;4.78;;;;;;;-140.79;100.00;63287.88;5039203;28;20041;-50
2021/12/05 06:20:07;;;;;;;6.90;4.70;;;;;;;-140.79;100.00;63287.88;5037292;28;20040;-55
2021/12/05 06:22:33;;;;;;;7.10;4.65;;;;;;;-140.79;100.00;63287.88;5037270;28;20075;-54
2021/12/05 06:24:59;;;;;;;6.80;4.75;;;;;;;-140.79;100.00;63287.88;5041149;28;20102;-53
2021/12/05 06:27:24;;;;;;;7.03;5.18;;;;;;;-140.79;100.00;63287.88;5041496;28;20043;-53
2021/12/05 06:30:04;;;;;;;6.75;4.78;;;;;;;-140.79;100.00;63287.88;5039354;28;20021;-53
2021/12/05 06:36:51;;;;;;;5.82;4.88;;;;;;;-140.79;100.00;63287.88;5041426;28;20055;-53
2021/12/05 06:38:58;;;;;;;6.53;4.80;;;;;;;-140.79;100.00;63287.88;5033605;28;20545;-53
2021/12/05 06:46:09;;;;;;;6.93;5.03;;;;;;;-140.79;100.00;63287.88;5042106;28;20094;-55
2021/12/05 06:48:34;;;;;;;6.70;5.03;;;;;;;-140.79;100.00;63287.88;5040845;28;20091;-54
2021/12/05 06:51:00;;;;;;;7.38;5.28;;;;;;;-140.79;100.00;63287.88;5040320;28;20052;-54
2021/12/05 06:53:25;;;;;;;7.03;4.47;;;;;;;-140.79;100.00;63287.88;5039383;28;20037;-55
2021/12/05 06:55:51;;;;;;;6.93;5.15;;;;;;;-140.79;100.00;63287.88;5038678;28;20025;-53
2021/12/05 06:58:16;;;;;;;7.38;5.38;;;;;;;-140.79;100.00;63287.88;5036965;28;20035;-55
2021/12/05 07:00:42;;;;;;;7.53;5.05;;;;;;;-140.79;100.00;63287.88;5036185;28;20028;-52
2021/12/05 07:03:07;;;;;;;7.20;4.88;;;;;;;-140.79;100.00;63287.88;5039448;28;20483;-51
2021/12/05 07:08:08;;;;;;;7.65;5.07;;;;;;;-140.79;100.00;63287.88;5041242;28;20029;-56
2021/12/05 07:10:43;;;;;;;6.30;4.80;;;;;;;-140.79;100.00;63287.88;5042430;28;20067;-52
2021/12/05 07:25:48;;;;;;;6.22;4.63;;;;;;;-140.79;100.00;63287.88;5016594;28;20041;-53
2021/12/05 07:42:03;;;;;;;7.72;4.55;;;;;;;-140.79;100.00;63287.88;5042615;28;20031;-53
2021/12/05 07:44:29;;;;;;;6.90;4.82;;;;;;;-140.79;100.00;63287.88;5042262;28;20037;-53
2021/12/05 07:46:55;;;;;;;7.07;4.85;;;;;;;-140.79;100.00;63287.88;5040852;28;20469;-53
2021/12/05 07:49:21;;;;;;;7.35;5.00;;;;;;;-140.79;100.00;63287.88;5041821;28;20160;-53
2021/12/05 07:51:48;;;;;;;7.70;5.13;;;;;;;-140.79;100.00;63287.88;5044382;28;20068;-55
2021/12/05 07:56:48;;;;;;;7.13;5.18;;;;;;;-140.79;100.00;63287.88;5042582;28;20413;-54
2021/12/05 07:59:53;;;;;;;6.45;4.35;;;;;;;-140.79;100.00;63287.88;5042341;28;20051;-52
2021/12/05 08:15:46;;;;;;;6.95;4.72;;;;;;;-140.79;100.00;63287.88;5045205;28;20048;-53
2021/12/05 08:18:12;;;;;;;6.25;4.55;;;;;;;-140.79;100.00;63287.88;5045447;28;20036;-54
2021/12/05 08:20:39;;;;;;;7.07;4.80;;;;;;;-140.79;100.00;63287.88;5043909;28;20031;-53
2021/12/05 08:23:05;;;;;;;6.85;4.70;;;;;;;-140.79;100.00;63287.88;5043177;28;20031;-54
2021/12/05 08:25:35;;;;;;;7.15;4.65;;;;;;;-140.79;100.00;63287.88;5043414;28;20029;-54
2021/12/05 08:30:40;;;;;;;6.88;4.38;;;;;;;-140.79;100.00;63287.88;5040262;28;20064;-54
2021/12/05 09:27:33;;;;;;;9.15;5.97;;;;;;;-140.79;100.00;63287.88;5043939;28;20040;-52
2021/12/05 10:37:36;;;;;;;7.43;4.40;;;;;;;-140.79;100.00;63287.88;5043021;28;20067;-55
2021/12/05 10:40:11;;;;;;;7.88;4.57;;;;;;;-140.79;100.00;63287.88;5042850;28;20111;-55
2021/12/05 10:42:44;;;;;;;7.25;4.90;;;;;;;-140.79;100.00;63287.88;5042271;28;20577;-55
2021/12/05 10:45:18;;;;;;;8.05;5.10;;;;;;;-140.79;100.00;63287.88;5042714;28;20033;-55
2021/12/05 10:47:46;;;;;;;6.18;4.55;;;;;;;-140.79;100.00;63287.88;5042379;28;20045;-55
2021/12/05 10:50:37;;;;;;;6.15;4.55;;;;;;;-140.79;100.00;63287.88;5042555;28;20108;-55
2021/12/05 10:53:25;;;;;;;6.13;4.30;;;;;;;-140.79;100.00;63287.88;5042118;28;20039;-54
2021/12/05 10:56:05;;;;;;;6.30;4.50;;;;;;;-140.79;100.00;63287.88;5042318;28;20060;-55
2021/12/05 10:58:54;;;;;;;6.47;4.20;;;;;;;-140.79;100.00;63287.88;5045077;28;20037;-54
2021/12/05 11:01:35;;;;;;;6.37;4.30;;;;;;;-140.79;100.00;63287.88;5041537;28;20044;-55
2021/12/05 11:04:02;;;;;;;6.63;4.43;;;;;;;-140.79;100.00;63287.88;5048787;28;20036;-55
2021/12/05 11:06:29;;;;;;;6.90;4.55;;;;;;;-140.79;100.00;63287.88;5048243;28;20182;-55
2021/12/05 11:08:58;;;;;;;6.70;4.20;;;;;;;-140.79;100.00;63287.88;5047083;28;20725;-55
2021/12/05 11:11:23;;;;;;;7.15;4.60;;;;;;;-140.79;100.00;63287.88;5048992;28;20021;-55
2021/12/05 11:13:50;;;;;;;6.30;4.45;;;;;;;-140.79;100.00;63287.88;5049105;28;20040;-55
2021/12/05 11:16:35;;;;;;;6.88;4.13;;;;;;;-140.79;100.00;63287.88;5048322;28;20028;-55
2021/12/05 11:19:01;;;;;;;6.22;4.30;;;;;;;-140.79;100.00;63287.88;5048224;28;20072;-55
2021/12/05 11:21:33;;;;;;;5.63;4.13;;;;;;;-140.79;100.00;63287.88;5049015;28;20076;-54
2021/12/05 11:24:12;;;;;;;6.55;4.00;;;;;;;-140.79;100.00;63287.88;5048787;28;20140;-54
2021/12/05 11:26:40;;;;;;;7.82;4.22;;;;;;;-140.79;100.00;63287.88;5049039;28;20410;-55
2021/12/05 11:29:06;;;;;;;6.25;4.30;;;;;;;-140.79;100.00;63287.88;5048844;28;20131;-53
2021/12/05 11:31:32;;;;;;;6.85;4.72;;;;;;;-140.79;100.00;63287.88;5048546;28;20041;-53
2021/12/05 11:33:58;;;;;;;7.18;4.88;;;;;;;-140.79;100.00;63287.88;5048508;28;20025;-54
2021/12/05 11:36:25;;;;;;;6.70;4.20;;;;;;;-140.79;100.00;63287.88;5048816;28;20029;-54
2021/12/05 11:38:50;;;;;;;6.40;4.10;;;;;;;-140.79;100.00;63287.88;5048669;28;20576;-53
2021/12/05 11:41:20;;;;;;;6.15;4.30;;;;;;;-140.79;100.00;63287.88;5048772;28;20029;-53
2021/12/05 11:44:03;;;;;;;6.70;4.15;;;;;;;-140.79;100.00;63287.88;5048532;28;20108;-54
2021/12/05 11:46:34;;;;;;;6.70;4.00;;;;;;;-140.79;100.00;63287.88;5048549;28;20032;-54
2021/12/05 11:49:10;;;;;;;20.27;4.85;;;;;;;-140.79;100.00;63287.88;5047597;28;20040;-54
2021/12/05 11:51:48;;;;;;;14.30;4.15;;;;;;;-140.79;100.00;63287.88;5048150;28;20040;-53
2021/12/05 11:54:23;;;;;;;11.63;4.75;;;;;;;-140.79;100.00;63287.88;5048158;28;20448;-53
2021/12/05 11:56:56;;;;;;;11.07;4.65;;;;;;;-140.79;100.00;63287.88;5048520;28;20419;-55
2021/12/05 11:59:35;;;;;;;12.93;4.32;;;;;;;-140.79;100.00;63287.88;5046889;28;20571;-52
2021/12/05 12:02:08;;;;;;;9.75;4.10;;;;;;;-140.79;100.00;63287.88;5048401;28;20044;-54
2021/12/05 12:04:38;;;;;;;13.10;4.82;;;;;;;-140.79;100.00;63287.88;5072081;28;20037;-55
2021/12/05 12:07:16;;;;;;;8.68;4.22;;;;;;;-140.79;100.00;63287.88;5048340;28;20033;-54
2021/12/05 12:09:42;;;;;;;8.38;4.00;;;;;;;-140.79;100.00;63287.88;5044823;28;20029;-54
2021/12/05 12:12:08;;;;;;;7.70;4.45;;;;;;;-140.79;100.00;63287.88;5045349;28;20036;-55
2021/12/05 12:14:33;;;;;;;8.40;4.28;;;;;;;-140.79;100.00;63287.88;5045219;28;20033;-55
2021/12/05 12:16:59;;;;;;;10.00;3.90;;;;;;;-140.79;100.00;63287.88;5044899;28;20033;-52
2021/12/05 12:19:25;;;;;;;12.07;4.05;;;;;;;-140.79;100.00;63287.88;5045003;28;20029;-52
2021/12/05 12:21:56;;;;;;;8.80;4.20;;;;;;;-140.79;100.00;63287.88;5045001;28;20526;-51
2021/12/05 12:24:22;;;;;;;8.55;3.72;;;;;;;-140.79;100.00;63287.88;5042618;28;20037;-54
2021/12/05 12:26:47;;;;;;;9.50;4.50;;;;;;;-140.79;100.00;63287.88;5041276;28;20404;-54
2021/12/05 12:29:12;;;;;;;8.35;4.13;;;;;;;-140.79;100.00;63287.88;5043238;28;20033;-54
2021/12/05 12:31:41;;;;;;;6.93;4.10;;;;;;;-140.79;100.00;63287.88;5043299;28;20044;-53
2021/12/05 12:34:12;;;;;;;7.95;4.38;;;;;;;-140.79;100.00;63287.88;5042625;28;20063;-53
2021/12/05 12:36:44;;;;;;;8.27;3.80;;;;;;;-140.79;100.00;63287.88;5044843;28;20452;-55
2021/12/05 12:39:15;;;;;;;6.13;3.90;;;;;;;-140.79;100.00;63287.88;5045153;28;20087;-55
2021/12/05 12:41:40;;;;;;;7.68;3.90;;;;;;;-140.79;100.00;63287.88;5042648;28;20064;-54
2021/12/05 12:44:07;;;;;;;8.93;4.30;;;;;;;-140.79;100.00;63287.88;5044524;28;20044;-53
2021/12/05 12:46:36;;;;;;;12.88;4.47;;;;;;;-140.79;100.00;63287.88;5043005;28;20025;-54
2021/12/05 12:49:14;;;;;;;7.85;3.95;;;;;;;-140.79;100.00;63287.88;5040592;28;20426;-54
2021/12/05 12:51:40;;;;;;;6.72;4.20;;;;;;;-140.79;100.00;63287.88;5044070;28;20087;-54
2021/12/05 12:54:09;;;;;;;10.02;3.97;;;;;;;-140.79;100.00;63287.88;5044170;28;20037;-52
2021/12/05 12:56:35;;;;;;;8.38;4.07;;;;;;;-140.79;100.00;63287.88;5043329;28;20029;-57
2021/12/05 12:59:06;;;;;;;5.93;4.13;;;;;;;-140.79;100.00;63287.88;5044047;28;20122;-57
2021/12/05 13:05:02;;;;;;;5.55;3.63;;;;;;;-140.79;100.00;63287.88;5039765;28;20108;-57
2021/12/05 13:10:08;;;;;;;6.68;4.00;;;;;;;-140.79;100.00;63287.88;5042529;28;20037;-54
2021/12/05 13:12:40;;;;;;;6.05;4.00;;;;;;;-140.79;100.00;63287.88;5044468;28;20029;-55
2021/12/05 13:15:11;;;;;;;6.35;4.03;;;;;;;-140.79;100.00;63287.88;5044042;28;20056;-55
2021/12/05 13:17:41;;;;;;;6.80;3.67;;;;;;;-140.79;100.00;63287.88;5043838;28;20041;-54
2021/12/05 13:20:07;;;;;;;7.10;4.05;;;;;;;-140.79;100.00;63287.88;5043964;28;20036;-56
2021/12/05 13:22:33;;;;;;;8.23;4.38;;;;;;;-140.79;100.00;63287.88;5041242;28;20043;-57
2021/12/05 13:25:05;;;;;;;6.22;3.75;;;;;;;-140.79;100.00;63287.88;5041072;28;20037;-59
2021/12/05 13:27:32;;;;;;;6.85;4.03;;;;;;;-140.79;100.00;63287.88;5042381;28;20037;-57
2021/12/05 13:29:57;;;;;;;5.32;3.92;;;;;;;-140.79;100.00;63287.88;5042515;28;20040;-56
2021/12/05 13:32:26;;;;;;;6.10;4.30;;;;;;;-140.79;100.00;63287.88;5039902;28;20037;-57
2021/12/05 13:34:52;;;;;;;6.55;3.90;;;;;;;-140.79;100.00;63287.88;5039178;28;20025;-53
2021/12/05 13:37:25;;;;;;;6.50;3.85;;;;;;;-140.79;100.00;63287.88;5038956;28;20035;-57
2021/12/05 13:40:08;;;;;;;6.10;3.97;;;;;;;-140.79;100.00;63287.88;5039225;28;20032;-55
2021/12/05 13:42:37;;;;;;;6.70;4.03;;;;;;;-140.79;100.00;63287.88;5038817;28;20031;-56
2021/12/05 13:45:08;;;;;;;6.50;4.00;;;;;;;-140.79;100.00;63287.88;5040501;28;20021;-56
2021/12/05 13:48:00;;;;;;;6.43;3.90;;;;;;;-140.79;100.00;63287.88;5042752;28;20134;-56
2021/12/05 13:50:29;;;;;;;6.72;4.18;;;;;;;-140.79;100.00;63287.88;5036425;28;20045;-56
2021/12/05 13:53:03;;;;;;;6.18;4.30;;;;;;;-140.79;100.00;63287.88;5042384;28;20427;-55
2021/12/05 13:55:53;;;;;;;7.75;4.43;;;;;;;-140.79;100.00;63287.88;5042465;28;20032;-53
2021/12/05 13:58:40;;;;;;;6.10;3.97;;;;;;;-140.79;100.00;63287.88;5043045;28;20562;-54
2021/12/05 14:01:24;;;;;;;4.93;4.00;;;;;;;-140.79;100.00;63287.88;5042525;28;20045;-55
2021/12/05 14:03:55;;;;;;;5.30;3.92;;;;;;;-140.79;100.00;63287.88;5043116;28;20036;-53
2021/12/05 14:06:40;;;;;;;5.88;3.83;;;;;;;-140.79;100.00;63287.88;5042964;28;20112;-52
2021/12/05 14:09:23;;;;;;;6.60;4.32;;;;;;;-140.79;100.00;63287.88;5043401;28;20037;-55
2021/12/05 14:11:50;;;;;;;6.28;4.30;;;;;;;-140.79;100.00;63287.88;5043401;28;20731;-53
2021/12/05 14:14:17;;;;;;;5.97;3.97;;;;;;;-140.79;100.00;63287.88;5043032;28;20024;-55
2021/12/05 14:16:44;;;;;;;7.03;4.75;;;;;;;-140.79;100.00;63287.88;5042376;28;20082;-56
2021/12/05 14:19:13;;;;;;;5.22;4.05;;;;;;;-140.79;100.00;63287.88;5042681;28;20032;-55
2021/12/05 14:21:44;;;;;;;6.05;3.92;;;;;;;-140.79;100.00;63287.88;5042144;28;20069;-59
2021/12/05 14:24:09;;;;;;;6.25;3.80;;;;;;;-140.79;100.00;63287.88;5042904;28;20137;-56
2021/12/05 14:26:39;;;;;;;7.00;4.00;;;;;;;-140.79;100.00;63287.88;5043247;28;20601;-53
2021/12/05 14:29:13;;;;;;;5.38;4.00;;;;;;;-140.79;100.00;63287.88;5042171;28;20135;-55
2021/12/05 14:31:41;;;;;;;5.82;3.92;;;;;;;-140.79;100.00;63287.88;5042475;28;20139;-56
2021/12/05 14:34:09;;;;;;;5.68;4.03;;;;;;;-140.79;100.00;63287.88;5042627;28;20043;-55
2021/12/05 14:36:43;;;;;;;5.40;3.80;;;;;;;-140.79;100.00;63287.88;5043301;28;20025;-56
2021/12/05 14:39:12;;;;;;;6.00;3.70;;;;;;;-140.79;100.00;63287.88;5039749;28;20499;-54
2021/12/05 14:41:39;;;;;;;5.53;4.10;;;;;;;-140.79;100.00;63287.88;5041564;28;20028;-55
2021/12/05 14:44:05;;;;;;;6.07;4.15;;;;;;;-140.79;100.00;63287.88;5042672;28;20044;-55
2021/12/05 14:46:30;;;;;;;10.68;5.15;;;;;;;-140.79;100.00;63287.88;5042520;28;20506;-54
2021/12/05 14:49:02;;;;;;;7.85;4.03;;;;;;;-140.79;100.00;63287.88;5042708;28;20037;-54
2021/12/05 14:51:38;;;;;;;7.35;3.67;;;;;;;-140.79;100.00;63287.88;5042594;28;20037;-53
2021/12/05 14:54:04;;;;;;;8.25;4.13;;;;;;;-140.79;100.00;63287.88;5042605;28;20186;-56
2021/12/05 14:56:30;;;;;;;9.13;4.55;;;;;;;-140.79;100.00;63287.88;5042675;28;20540;-55
2021/12/05 14:59:06;;;;;;;7.85;4.05;;;;;;;-140.79;100.00;63287.88;5038897;28;20037;-51
2021/12/05 15:01:32;;;;;;;8.45;3.95;;;;;;;-140.79;100.00;63287.88;5038257;28;20881;-55
2021/12/05 15:03:59;;;;;;;7.68;4.43;;;;;;;-140.79;100.00;63287.88;5041598;28;20040;-54
2021/12/05 15:06:42;;;;;;;13.18;4.50;;;;;;;-140.79;100.00;63287.88;5042863;28;20496;-54
2021/12/05 15:09:29;;;;;;;10.68;4.55;;;;;;;-140.79;100.00;63287.88;5041520;28;20089;-56
2021/12/05 15:12:18;;;;;;;6.40;4.20;;;;;;;-140.79;100.00;63287.88;5057261;28;20029;-54
2021/12/05 15:14:44;;;;;;;9.38;4.28;;;;;;;-140.79;100.00;63287.88;5038281;28;20069;-57
2021/12/05 15:17:21;;;;;;;6.50;4.10;;;;;;;-140.79;100.00;63287.88;5037188;28;20108;-56
2021/12/05 15:19:49;;;;;;;9.75;4.55;;;;;;;-140.79;100.00;63287.88;5040887;28;20133;-52
2021/12/05 15:22:15;;;;;;;8.00;4.20;;;;;;;-140.79;100.00;63287.88;5040227;28;20036;-52
2021/12/05 15:24:41;;;;;;;6.60;4.18;;;;;;;-140.79;100.00;63287.88;5042027;28;20029;-52
2021/12/05 15:27:13;;;;;;;8.50;3.78;;;;;;;-140.79;100.00;63287.88;5041172;28;20504;-54
2021/12/05 15:29:48;;;;;;;5.93;3.88;;;;;;;-140.79;100.00;63287.88;5041513;28;20029;-52
2021/12/05 15:32:18;;;;;;;7.70;4.40;;;;;;;-140.79;100.00;63287.88;5040756;28;20032;-52
2021/12/05 15:34:44;;;;;;;6.53;4.38;;;;;;;-140.79;100.00;63287.88;5038383;28;20067;-54
2021/12/05 15:37:10;;;;;;;7.63;4.10;;;;;;;-140.79;100.00;63287.88;5037051;28;20064;-53
2021/12/05 15:39:37;;;;;;;8.40;4.63;;;;;;;-140.79;100.00;63287.88;5039976;28;20034;-54
2021/12/05 15:42:04;;;;;;;8.00;4.38;;;;;;;-140.79;100.00;63287.88;5038545;28;20021;-54
2021/12/05 15:44:33;;;;;;;8.00;4.88;;;;;;;-140.79;100.00;63287.88;5022410;28;20480;-51
2021/12/05 15:47:13;;;;;;;8.38;4.15;;;;;;;-140.79;100.00;63287.88;5043088;28;20112;-53
2021/12/05 15:49:42;;;;;;;6.97;4.13;;;;;;;-140.79;100.00;63287.88;5043070;28;20207;-54
2021/12/05 15:52:08;;;;;;;7.13;4.05;;;;;;;-140.79;100.00;63287.88;5048559;28;20106;-55
2021/12/05 15:54:33;;;;;;;5.00;3.88;;;;;;;-140.79;100.00;63287.88;5038155;28;20037;-53
2021/12/05 15:57:14;;;;;;;6.03;4.30;;;;;;;-140.79;100.00;63287.88;5022011;28;20028;-56
2021/12/05 15:59:43;;;;;;;8.07;4.07;;;;;;;-140.79;100.00;63287.88;5042347;28;20480;-56
2021/12/05 16:02:10;;;;;;;6.97;4.25;;;;;;;-140.79;100.00;63287.88;5024321;28;20434;-54
2021/12/05 16:04:37;;;;;;;7.40;4.55;;;;;;;-140.79;100.00;63287.88;5042555;28;20420;-58
2021/12/05 16:07:05;;;;;;;6.18;4.15;;;;;;;-140.79;100.00;63287.88;5038804;28;20025;-56
2021/12/05 16:09:30;;;;;;;6.00;4.22;;;;;;;-140.79;100.00;63287.88;5041739;28;20025;-55
2021/12/05 16:12:09;;;;;;;6.93;4.70;;;;;;;-140.79;100.00;63287.88;5043021;28;20035;-54
2021/12/05 16:14:36;;;;;;;9.80;6.78;;;;;;;-140.79;100.00;63287.88;5043790;28;20047;-56
2021/12/05 16:17:16;;;;;;;7.80;5.28;;;;;;;-140.79;100.00;63287.88;5045398;28;20380;-57
2021/12/05 16:20:14;;;;;;;8.85;5.47;;;;;;;-140.79;100.00;63287.88;5044921;28;20044;-52
2021/12/05 16:23:22;;;;;;;7.75;4.97;;;;;;;-140.79;100.00;63287.88;5044473;28;20499;-54
2021/12/05 16:26:09;;;;;;;7.63;4.75;;;;;;;-140.79;100.00;63287.88;5019364;28;20041;-60
2021/12/05 16:28:38;;;;;;;8.68;4.82;;;;;;;-140.79;100.00;63287.88;5044895;28;20115;-54
2021/12/05 16:31:26;;;;;;;8.43;4.75;;;;;;;-140.79;100.00;63287.88;5042630;28;20036;-55
2021/12/05 16:33:54;;;;;;;7.22;4.63;;;;;;;-140.79;100.00;63287.88;5044144;28;20051;-58
2021/12/05 16:36:21;;;;;;;10.55;4.47;;;;;;;-140.79;100.00;63287.88;5043114;28;20477;-54
2021/12/05 16:38:50;;;;;;;5.65;4.30;;;;;;;-140.79;100.00;63287.88;5038696;28;20037;-54
2021/12/05 16:41:21;;;;;;;7.00;4.05;;;;;;;-140.79;100.00;63287.88;5040081;28;20033;-52
2021/12/05 16:43:52;;;;;;;5.50;4.05;;;;;;;-140.79;100.00;63287.88;5040040;28;20033;-55
2021/12/05 16:46:33;;;;;;;6.57;4.30;;;;;;;-140.79;100.00;63287.88;5040506;28;20036;-54
2021/12/05 16:49:03;;;;;;;6.55;4.15;;;;;;;-140.79;100.00;63287.88;5040216;28;20084;-52
2021/12/05 16:51:38;;;;;;;6.70;4.30;;;;;;;-140.79;100.00;63287.88;5040168;28;20049;-54
2021/12/05 16:54:20;;;;;;;6.47;4.35;;;;;;;-140.79;100.00;63287.88;5064670;28;20040;-53
2021/12/05 16:56:49;;;;;;;7.25;4.80;;;;;;;-140.79;100.00;63287.88;5044259;28;20094;-50
2021/12/05 16:59:25;;;;;;;8.38;4.43;;;;;;;-140.79;100.00;63287.88;5043451;28;20040;-53
2021/12/05 17:02:06;;;;;;;7.72;4.63;;;;;;;-140.79;100.00;63287.88;5043608;28;20028;-52
2021/12/05 17:04:57;;;;;;;6.35;4.47;;;;;;;-140.79;100.00;63287.88;5043534;28;20064;-54
2021/12/05 17:07:54;;;;;;;7.65;4.68;;;;;;;-140.79;100.00;63287.88;5043897;28;20033;-54
2021/12/05 17:10:19;;;;;;;6.85;4.75;;;;;;;-140.79;100.00;63287.88;5043078;28;20075;-55
2021/12/05 17:12:45;;;;;;;31.85;5.07;;;;;;;-140.79;100.00;63287.88;5043221;28;20029;-56